Historyczne dane pomiarowe

Dodano dane terminowe – wersja testowa.

Dane z okresu 1951-2019

Wersja bazy: 1.34 [2019-03-16, lista zmian], aktualizacja planowana na 2019-04-15

Dane meteo z obszaru Polski uzyskane na podstawie danych udostępnionych przez Instytut Meteorologii i Gospodarki Wodnej – Państwowy Instytut Badawczy.

 

Wybierz Datę:    

       

TemperaturaWilgotnośćWiatrCiśnienieOpadyŚniegCzas trwania zjawisk
 Stacja t tx tn tng RH VA  wxwx mslp ppp RRR   cm mm wxwxwxwxwxwxwx
1979-01-17 -5.0 -4.0 -5.7- 92.5- 8.0 2.3---- 2.0-- 31---------
1979-01-18 -6.1 -5.0 -7.6- 93.3- 8.0 1.0---- 0.0-- 31---------
1979-01-19 -6.1 -4.9 -7.6- 87.8- 8.0 2.7---- 0.0-- 30---------
1979-01-20 -9.7 -7.5-12.8- 87.8- 6.3 3.0---- 0.1-- 29---------
1979-01-21-13.0-10.3-15.2- 85.0- 4.3 3.0---- 0.2-- 29---------
1979-01-22-11.3 -8.3-15.6- 87.5- 8.0 1.7---- 0.9-- 31---------
1979-01-23 -9.7 -7.5-11.2- 89.5- 8.0 1.7---- 1.0-- 32---------
1979-01-24 -3.5 0.7 -9.7- 90.0- 8.0 4.7---- 0.7-- 32---------
1979-01-25 -4.3 -1.6 -5.3- 85.8- 6.7 2.7---- 0.1-- 30---------
1979-01-26 -6.3 -3.7-11.0- 86.3- 8.0 3.7---- 0.0-- 30---------
1979-01-27 -4.3 -2.4 -7.2- 90.8- 8.0 2.0---- 0.0-- 29---------
1979-01-28 -3.8 -1.9 -8.0- 90.8- 8.0 3.3---- 0.0-- 28---------
1979-01-29 -4.0 -1.8 -5.3- 90.5- 7.3 2.3---- 0.0-- 28---------
1979-01-30 -5.0 -2.9 -6.5- 93.5- 8.0 1.7---- 0.1-- 27---------
1979-01-31 -3.9 -1.9 -5.5- 77.5- 8.0 9.7---- 0.0-- 27---------
1979-02-01 -0.6 1.6 -4.3- 89.8- 8.0 2.7---- 1.8-- 27---------
1979-02-02 0.0 0.8 -1.1- 97.8- 8.0 2.7---- 6.1-- 25---------
1979-02-03 -1.6 0.0 -2.6- 84.8- 6.7 5.3---- 0.0-- 25---------
1979-02-04 -1.0 0.6 -3.4- 80.0- 4.3 4.7---- 0.0-- 25---------
1979-02-05 -5.4 0.4-10.5- 87.3- 6.0 1.0---- 0.0-- 25---------
1979-02-06 -4.5 -0.8-11.3- 86.3- 8.0 2.3---- 0.0-- 24---------
1979-02-07 -5.4 -2.2 -6.2- 89.0- 6.7 3.0---- 0.6-- 24---------
1979-02-08 -4.6 -1.1 -7.2- 86.5- 8.0 7.0---- 2.7-- 24---------
1979-02-09 -3.3 -1.3 -6.1- 88.0- 5.7 5.3---- 1.1-- 24---------
1979-02-10 -5.7 -0.5-10.3- 88.3- 0.0 1.7---- 0.0-- 24---------
1979-02-11 -8.2 -0.4-13.4- 90.3- 3.3 1.0---- 0.0-- 23---------
1979-02-12 -9.2 -3.1-17.7- 77.5- 7.3 3.3---- 0.2-- 23---------
1979-02-13 -6.1 -2.9 -8.4- 85.0- 7.3 2.3---- 0.0-- 23---------
1979-02-14-12.9 -6.0-15.0- 86.0- 8.0 6.3---- 3.9-- 23---------
1979-02-15-14.0-11.9-16.4- 86.5- 8.0 4.7---- 0.3-- 30---------
240.2 ms

 

Źródłem pochodzenia danych jest Instytut Meteorologii i Gospodarki Wodnej – Państwowy Instytut Badawczy. Dane Instytutu Meteorologii i Gospodarki Wodnej – Państwowego Instytutu Badawczego zostały przetworzone.

Dane źródłowe można odnaleźć na stronie https://dane.imgw.pl